Time;durP1;ratioP1;P1;durP2;ratioP2;P2;SDS_P1;SDS_P2;PMS_P1;PMS_P2;Temp;Humidity;BMP_temperature;BMP_pressure;BME280_temperature;BME280_humidity;BME280_pressure;Samples;Min_cycle;Max_cycle;Signal;HPM_P1;HPM_P2
2024/01/26 00:00:09;;;;;;;0.10;0.10;;;;;;;;;;5016966;28;20080;-91
2024/01/26 00:02:35;;;;;;;0.00;0.00;;;;;;;;;;5014226;28;20040;-91
2024/01/26 00:05:00;;;;;;;0.08;0.08;;;;;;;;;;5017887;28;20030;-91
2024/01/26 00:07:26;;;;;;;0.00;0.00;;;;;;;;;;5017861;28;20034;-91
2024/01/26 00:09:52;;;;;;;0.10;0.10;;;;;;;;;;5013163;28;20083;-91
2024/01/26 00:12:18;;;;;;;0.10;0.10;;;;;;;;;;5017204;28;20081;-91
2024/01/26 00:14:44;;;;;;;0.00;0.00;;;;;;;;;;5029941;28;20065;-92
2024/01/26 00:17:10;;;;;;;0.10;0.10;;;;;;;;;;5015644;28;20029;-91
2024/01/26 00:19:36;;;;;;;0.00;0.00;;;;;;;;;;5016580;28;20021;-91
2024/01/26 00:22:02;;;;;;;0.10;0.10;;;;;;;;;;5015647;28;20057;-91
2024/01/26 00:24:28;;;;;;;0.00;0.00;;;;;;;;;;5011765;28;20480;-91
2024/01/26 00:26:54;;;;;;;0.10;0.10;;;;;;;;;;5018223;28;20041;-91
2024/01/26 00:29:20;;;;;;;0.10;0.10;;;;;;;;;;5014372;28;20029;-91
2024/01/26 00:31:46;;;;;;;0.10;0.10;;;;;;;;;;5007234;28;20405;-92
2024/01/26 00:34:12;;;;;;;0.10;0.10;;;;;;;;;;5014094;28;20022;-92
2024/01/26 00:36:38;;;;;;;0.00;0.00;;;;;;;;;;5016666;28;20026;-92
2024/01/26 00:39:06;;;;;;;0.00;0.00;;;;;;;;;;5020647;28;20025;-91
2024/01/26 00:41:32;;;;;;;0.10;0.10;;;;;;;;;;5011481;28;20465;-91
2024/01/26 00:43:58;;;;;;;0.10;0.10;;;;;;;;;;5017473;28;20026;-90
2024/01/26 00:46:24;;;;;;;0.10;0.10;;;;;;;;;;5016150;28;20026;-92
2024/01/26 00:48:50;;;;;;;0.10;0.10;;;;;;;;;;5015167;28;20033;-92
2024/01/26 00:51:16;;;;;;;0.00;0.00;;;;;;;;;;5014909;28;20113;-91
2024/01/26 00:53:42;;;;;;;0.00;0.00;;;;;;;;;;5013289;28;20396;-90
2024/01/26 00:56:08;;;;;;;0.10;0.10;;;;;;;;;;5014679;28;20033;-93
2024/01/26 00:58:34;;;;;;;0.10;0.10;;;;;;;;;;5030587;28;20034;-91
2024/01/26 01:01:00;;;;;;;0.10;0.10;;;;;;;;;;5010176;28;20456;-91
2024/01/26 01:03:26;;;;;;;0.10;0.10;;;;;;;;;;5013927;28;20491;-90
2024/01/26 01:05:51;;;;;;;0.10;0.10;;;;;;;;;;5013766;28;20025;-91
2024/01/26 01:08:18;;;;;;;0.00;0.00;;;;;;;;;;5027571;28;20032;-91
2024/01/26 01:10:44;;;;;;;0.00;0.00;;;;;;;;;;5014697;28;20079;-91
2024/01/26 01:13:10;;;;;;;0.10;0.10;;;;;;;;;;5011411;28;20034;-91
2024/01/26 01:15:37;;;;;;;0.10;0.10;;;8.50;99.90;;;;;;5010465;28;20030;-91
2024/01/26 01:18:04;;;;;;;0.10;0.10;;;;;;;;;;5010483;28;20050;-91
2024/01/26 01:20:29;;;;;;;0.10;0.10;;;;;;;;;;5010503;28;20026;-91
2024/01/26 01:22:58;;;;;;;0.00;0.00;;;;;;;;;;5013036;28;20124;-90
2024/01/26 01:25:25;;;;;;;0.00;0.00;;;;;;;;;;5011675;28;20377;-91
2024/01/26 01:27:51;;;;;;;0.10;0.10;;;;;;;;;;5010801;28;20030;-91
2024/01/26 01:30:17;;;;;;;0.10;0.10;;;;;;;;;;5010613;28;20034;-91
2024/01/26 01:32:43;;;;;;;0.00;0.00;;;;;;;;;;5025833;28;20124;-89
2024/01/26 01:35:09;;;;;;;0.10;0.10;;;;;;;;;;5009375;28;20065;-90
2024/01/26 01:37:35;;;;;;;0.10;0.10;;;;;;;;;;5009268;28;20068;-91
2024/01/26 01:40:01;;;;;;;0.10;0.10;;;;;;;;;;5014151;28;20030;-90
2024/01/26 01:42:27;;;;;;;0.00;0.00;;;;;;;;;;5011081;28;20025;-90
2024/01/26 01:44:53;;;;;;;0.10;0.10;;;;;;;;;;5010869;28;20400;-90
2024/01/26 01:47:19;;;;;;;0.10;0.10;;;;;;;;;;5013043;28;20030;-90
2024/01/26 01:49:45;;;;;;;0.10;0.10;;;;;;;;;;5027630;28;20037;-91
2024/01/26 01:52:15;;;;;;;0.00;0.00;;;8.60;99.90;;;;;;5008321;28;20029;-91
2024/01/26 01:54:42;;;;;;;0.03;0.03;;;;;;;;;;5011161;28;20390;-91
2024/01/26 01:57:11;;;;;;;0.00;0.00;;;;;;;;;;5028934;28;20409;-91
2024/01/26 01:59:37;;;;;;;0.00;0.00;;;;;;;;;;5023827;28;20032;-92
2024/01/26 02:02:04;;;;;;;0.10;0.10;;;;;;;;;;5004778;28;20036;-92
2024/01/26 02:04:30;;;;;;;0.00;0.00;;;;;;;;;;5009806;28;20080;-91
2024/01/26 02:06:56;;;;;;;0.03;0.03;;;;;;;;;;5013549;28;20481;-91
2024/01/26 02:09:22;;;;;;;0.00;0.00;;;;;;;;;;5005828;28;20034;-90
2024/01/26 02:11:49;;;;;;;0.00;0.00;;;;;;;;;;5012608;28;20526;-90
2024/01/26 02:14:15;;;;;;;0.08;0.08;;;;;;;;;;5012097;28;20022;-91
2024/01/26 02:16:51;;;;;;;0.10;0.10;;;;;;;;;;5009783;28;20034;-91
2024/01/26 02:19:17;;;;;;;0.10;0.10;;;;;;;;;;5007471;28;20412;-91
2024/01/26 02:21:43;;;;;;;0.10;0.10;;;;;;;;;;5012514;28;20029;-90
2024/01/26 02:24:09;;;;;;;0.10;0.10;;;;;;;;;;5012695;28;20030;-90
2024/01/26 02:26:35;;;;;;;0.10;0.10;;;;;;;;;;5012729;28;20036;-91
2024/01/26 02:29:01;;;;;;;0.10;0.10;;;;;;;;;;5012276;28;20033;-90
2024/01/26 02:31:27;;;;;;;0.10;0.10;;;;;;;;;;5010633;28;20069;-91
2024/01/26 02:33:53;;;;;;;0.08;0.08;;;;;;;;;;5005612;28;20031;-90
2024/01/26 02:36:19;;;;;;;0.00;0.00;;;;;;;;;;5012741;28;20037;-90
2024/01/26 02:38:44;;;;;;;0.10;0.10;;;;;;;;;;5008671;28;21480;-90
2024/01/26 02:41:10;;;;;;;0.10;0.10;;;;;;;;;;5013602;28;20422;-92
2024/01/26 02:43:36;;;;;;;0.00;0.00;;;;;;;;;;5013152;28;20042;-91
2024/01/26 02:46:09;;;;;;;0.10;0.10;;;8.70;99.90;;;;;;5013192;28;20515;-90
2024/01/26 02:48:35;;;;;;;0.00;0.00;;;;;;;;;;5007759;28;20091;-91
2024/01/26 02:51:01;;;;;;;0.00;0.00;;;;;;;;;;5012702;28;20142;-90
2024/01/26 02:53:27;;;;;;;0.10;0.10;;;;;;;;;;5005764;28;20121;-91
2024/01/26 02:55:53;;;;;;;0.10;0.10;;;;;;;;;;5018190;28;20036;-91
2024/01/26 02:58:19;;;;;;;0.00;0.00;;;;;;;;;;5013096;28;20041;-91
2024/01/26 03:00:45;;;;;;;0.00;0.00;;;;;;;;;;5011374;28;20374;-90
2024/01/26 03:03:11;;;;;;;0.00;0.00;;;;;;;;;;5008650;28;20037;-90
2024/01/26 03:05:37;;;;;;;0.10;0.10;;;;;;;;;;5005499;28;20029;-92
2024/01/26 03:08:03;;;;;;;0.00;0.00;;;;;;;;;;5009907;28;20037;-90
2024/01/26 03:10:29;;;;;;;0.00;0.00;;;;;;;;;;5004769;28;20037;-89
2024/01/26 03:12:55;;;;;;;0.00;0.00;;;;;;;;;;5010939;28;20038;-91
2024/01/26 03:15:21;;;;;;;0.00;0.00;;;;;;;;;;5008740;28;20515;-90
2024/01/26 03:17:47;;;;;;;0.10;0.10;;;;;;;;;;5027061;28;20054;-90
2024/01/26 03:20:13;;;;;;;0.10;0.10;;;;;;;;;;5011330;28;20128;-91
2024/01/26 03:22:39;;;;;;;0.00;0.00;;;;;;;;;;5011732;28;20037;-90
2024/01/26 03:25:05;;;;;;;0.10;0.10;;;;;;;;;;5008198;28;20095;-91
2024/01/26 03:27:31;;;;;;;0.00;0.00;;;;;;;;;;5010192;28;20064;-90
2024/01/26 03:29:57;;;;;;;0.10;0.10;;;;;;;;;;5012354;28;20069;-91
2024/01/26 03:32:23;;;;;;;0.10;0.10;;;;;;;;;;5010487;28;20026;-90
2024/01/26 03:34:49;;;;;;;0.00;0.00;;;;;;;;;;5009460;28;20459;-91
2024/01/26 03:37:15;;;;;;;0.10;0.10;;;;;;;;;;5013105;28;20026;-91
2024/01/26 03:39:41;;;;;;;0.10;0.10;;;;;;;;;;5009056;28;20469;-90
2024/01/26 03:42:10;;;;;;;0.08;0.08;;;;;;;;;;5009710;28;20026;-91
2024/01/26 03:44:36;;;;;;;0.10;0.10;;;;;;;;;;5007552;28;20026;-91
2024/01/26 03:47:03;;;;;;;0.00;0.00;;;;;;;;;;5013932;28;20038;-91
2024/01/26 03:49:29;;;;;;;0.00;0.00;;;;;;;;;;5010721;28;20037;-90
2024/01/26 03:51:55;;;;;;;0.00;0.00;;;;;;;;;;5010117;28;20102;-90
2024/01/26 03:54:24;;;;;;;0.00;0.00;;;;;;;;;;5007593;28;20179;-90
2024/01/26 03:56:50;;;;;;;0.00;0.00;;;;;;;;;;5012192;28;20093;-91
2024/01/26 03:59:16;;;;;;;0.00;0.00;;;;;;;;;;5008334;28;20125;-91
2024/01/26 04:01:43;;;;;;;0.00;0.00;;;9.10;99.90;;;;;;5009412;28;20090;-91
2024/01/26 04:04:09;;;;;;;0.10;0.10;;;;;;;;;;5004658;28;20041;-91
2024/01/26 04:06:41;;;;;;;0.10;0.10;;;9.00;99.90;;;;;;5010197;28;20029;-91
2024/01/26 04:09:08;;;;;;;0.10;0.10;;;9.00;99.90;;;;;;5005700;28;20038;-90
2024/01/26 04:11:34;;;;;;;0.00;0.00;;;;;;;;;;5011147;28;20034;-90
2024/01/26 04:14:00;;;;;;;0.00;0.00;;;;;;;;;;5007792;28;20152;-91
2024/01/26 04:29:21;;;;;;;0.00;0.00;;;;;;;;;;4987313;28;20081;-92
2024/01/26 04:31:47;;;;;;;0.00;0.00;;;;;;;;;;4992463;28;20046;-92
2024/01/26 04:34:13;;;;;;;0.00;0.00;;;;;;;;;;4991882;28;20033;-92
2024/01/26 04:36:45;;;;;;;0.00;0.00;;;9.30;99.90;;;;;;4993277;28;20022;-91
2024/01/26 04:39:11;;;;;;;0.00;0.00;;;;;;;;;;4990598;28;20405;-92
2024/01/26 04:41:37;;;;;;;0.00;0.00;;;;;;;;;;4990772;28;20026;-91
2024/01/26 04:44:03;;;;;;;0.00;0.00;;;;;;;;;;4987579;28;20034;-92
2024/01/26 04:46:29;;;;;;;0.00;0.00;;;;;;;;;;4998149;28;20030;-91
2024/01/26 04:48:55;;;;;;;0.00;0.00;;;;;;;;;;4993844;28;20026;-91
2024/01/26 04:51:21;;;;;;;0.00;0.00;;;;;;;;;;4995407;28;20026;-92
2024/01/26 04:53:47;;;;;;;0.00;0.00;;;;;;;;;;4988454;28;20030;-92
2024/01/26 04:56:13;;;;;;;0.10;0.10;;;;;;;;;;4993776;28;20037;-91
2024/01/26 04:58:39;;;;;;;0.00;0.00;;;;;;;;;;4994954;28;20382;-92
2024/01/26 05:01:05;;;;;;;0.00;0.00;;;;;;;;;;5006758;28;20030;-92
2024/01/26 05:03:31;;;;;;;0.00;0.00;;;;;;;;;;4989093;28;20027;-92
2024/01/26 05:05:57;;;;;;;0.00;0.00;;;;;;;;;;4994259;28;20053;-91
2024/01/26 05:08:23;;;;;;;0.00;0.00;;;;;;;;;;4992379;28;20057;-91
2024/01/26 05:10:49;;;;;;;0.00;0.00;;;;;;;;;;4994694;28;20136;-91
2024/01/26 05:13:15;;;;;;;0.00;0.00;;;;;;;;;;4991183;28;20429;-91
2024/01/26 05:15:41;;;;;;;0.00;0.00;;;;;;;;;;4991753;28;20026;-91
2024/01/26 05:18:08;;;;;;;0.05;0.05;;;;;;;;;;5003685;28;20477;-91
2024/01/26 05:20:34;;;;;;;0.00;0.00;;;;;;;;;;4991122;28;20085;-91
2024/01/26 05:23:00;;;;;;;0.10;0.10;;;;;;;;;;4991629;28;20122;-91
2024/01/26 05:25:26;;;;;;;0.05;0.05;;;;;;;;;;4992201;28;20121;-90
2024/01/26 05:27:51;;;;;;;0.10;0.10;;;;;;;;;;4989934;28;20069;-92
2024/01/26 05:30:17;;;;;;;0.10;0.10;;;;;;;;;;4997198;28;20062;-92
2024/01/26 05:32:43;;;;;;;0.00;0.00;;;;;;;;;;4995193;28;20052;-93
2024/01/26 05:35:10;;;;;;;0.00;0.00;;;;;;;;;;4994219;28;20478;-93
2024/01/26 05:37:36;;;;;;;0.00;0.00;;;;;;;;;;4996529;28;20023;-94
2024/01/26 05:40:06;;;;;;;0.00;0.00;;;9.70;99.90;;;;;;4994258;28;20060;-92
2024/01/26 05:42:32;;;;;;;0.00;0.00;;;;;;;;;;4996407;28;20034;-92
2024/01/26 05:44:58;;;;;;;0.00;0.00;;;;;;;;;;4994457;28;20401;-91
2024/01/26 05:47:24;;;;;;;0.00;0.00;;;;;;;;;;4995154;28;20026;-91
2024/01/26 05:49:53;;;;;;;0.00;0.00;;;;;;;;;;4994426;28;20049;-91
2024/01/26 05:52:19;;;;;;;0.00;0.00;;;;;;;;;;4992851;28;20044;-92
2024/01/26 05:54:45;;;;;;;0.00;0.00;;;;;;;;;;4995035;28;20037;-90
2024/01/26 05:57:11;;;;;;;0.00;0.00;;;;;;;;;;5000393;28;20034;-92
2024/01/26 05:59:37;;;;;;;0.00;0.00;;;;;;;;;;4995438;28;20038;-91
2024/01/26 06:02:04;;;;;;;0.00;0.00;;;;;;;;;;4996230;28;20116;-92
2024/01/26 06:04:31;;;;;;;0.00;0.00;;;;;;;;;;4997258;28;20106;-91
2024/01/26 06:06:57;;;;;;;0.00;0.00;;;;;;;;;;5003876;28;20026;-92
2024/01/26 06:09:23;;;;;;;0.00;0.00;;;;;;;;;;4997184;28;20031;-92
2024/01/26 06:11:49;;;;;;;0.00;0.00;;;;;;;;;;4993589;28;20041;-92
2024/01/26 06:14:15;;;;;;;0.00;0.00;;;;;;;;;;4994670;28;20402;-92
2024/01/26 06:16:41;;;;;;;0.00;0.00;;;;;;;;;;4998435;28;20014;-92
2024/01/26 06:19:07;;;;;;;0.00;0.00;;;;;;;;;;4999221;28;20125;-91
2024/01/26 06:21:33;;;;;;;0.00;0.00;;;;;;;;;;4995478;28;20027;-92
2024/01/26 06:23:59;;;;;;;0.00;0.00;;;;;;;;;;4989517;28;20045;-92
2024/01/26 06:26:25;;;;;;;0.00;0.00;;;;;;;;;;4991092;28;20210;-93
2024/01/26 06:28:51;;;;;;;0.00;0.00;;;;;;;;;;4991950;28;20030;-93
2024/01/26 06:31:18;;;;;;;0.00;0.00;;;;;;;;;;4990159;28;20026;-93
2024/01/26 06:33:44;;;;;;;0.00;0.00;;;;;;;;;;4991105;28;20034;-92
2024/01/26 06:36:11;;;;;;;0.00;0.00;;;10.00;99.90;;;;;;4993167;28;20394;-91
2024/01/26 06:38:40;;;;;;;0.10;0.10;;;;;;;;;;4991367;28;20022;-92
2024/01/26 06:41:06;;;;;;;0.00;0.00;;;;;;;;;;4990778;28;20133;-92
2024/01/26 06:43:32;;;;;;;0.00;0.00;;;;;;;;;;5006969;28;20034;-92
2024/01/26 06:45:58;;;;;;;0.00;0.00;;;;;;;;;;4993286;28;20029;-91
2024/01/26 06:48:26;;;;;;;0.00;0.00;;;;;;;;;;4992543;28;20470;-92
2024/01/26 06:50:52;;;;;;;0.00;0.00;;;;;;;;;;4990959;28;20034;-92
2024/01/26 06:53:18;;;;;;;0.00;0.00;;;;;;;;;;4993844;28;20081;-93
2024/01/26 06:55:44;;;;;;;0.05;0.05;;;;;;;;;;4984984;28;20037;-92
2024/01/26 06:58:10;;;;;;;0.00;0.00;;;;;;;;;;4991981;28;20102;-93
2024/01/26 07:00:35;;;;;;;0.00;0.00;;;;;;;;;;4990825;28;20026;-91
2024/01/26 07:03:01;;;;;;;0.00;0.00;;;;;;;;;;4992448;28;20122;-92
2024/01/26 07:05:27;;;;;;;0.00;0.00;;;;;;;;;;4989437;28;20102;-93
2024/01/26 07:07:54;;;;;;;0.00;0.00;;;;;;;;;;4991551;28;20079;-92
2024/01/26 07:10:20;;;;;;;0.00;0.00;;;;;;;;;;4989209;28;20042;-91
2024/01/26 07:12:46;;;;;;;0.00;0.00;;;;;;;;;;4992457;28;20414;-91
2024/01/26 07:15:12;;;;;;;0.00;0.00;;;;;;;;;;4986639;28;20034;-90
2024/01/26 07:17:38;;;;;;;0.00;0.00;;;;;;;;;;4991270;28;20022;-92
2024/01/26 07:20:05;;;;;;;0.10;0.10;;;;;;;;;;4993178;28;20113;-90
2024/01/26 07:22:31;;;;;;;0.00;0.00;;;;;;;;;;5000450;28;20420;-90
2024/01/26 07:24:57;;;;;;;0.00;0.00;;;;;;;;;;4988252;28;20034;-90
2024/01/26 07:27:23;;;;;;;0.10;0.10;;;;;;;;;;4989772;28;20041;-90
2024/01/26 07:29:49;;;;;;;0.00;0.00;;;;;;;;;;4993369;28;20035;-90
2024/01/26 07:32:15;;;;;;;0.00;0.00;;;10.30;99.90;;;;;;4992861;28;20030;-91
2024/01/26 07:34:41;;;;;;;0.00;0.00;;;;;;;;;;4994612;28;20031;-90
2024/01/26 07:37:07;;;;;;;0.00;0.00;;;;;;;;;;4993687;28;20019;-91
2024/01/26 07:39:33;;;;;;;0.00;0.00;;;;;;;;;;4993648;28;20030;-90
2024/01/26 07:41:59;;;;;;;0.00;0.00;;;;;;;;;;4993155;28;20037;-90
2024/01/26 07:44:25;;;;;;;0.00;0.00;;;;;;;;;;4993330;28;20027;-90
2024/01/26 07:46:51;;;;;;;0.00;0.00;;;;;;;;;;4988458;28;20026;-90
2024/01/26 07:49:17;;;;;;;0.00;0.00;;;;;;;;;;4993228;28;20030;-90
2024/01/26 07:51:43;;;;;;;0.00;0.00;;;;;;;;;;4992834;28;20046;-90
2024/01/26 07:54:09;;;;;;;0.00;0.00;;;;;;;;;;4993097;28;20018;-90
2024/01/26 07:56:35;;;;;;;0.10;0.10;;;;;;;;;;4992869;28;20026;-90
2024/01/26 07:59:01;;;;;;;0.00;0.00;;;;;;;;;;4988332;28;20031;-90
2024/01/26 08:01:27;;;;;;;0.00;0.00;;;;;;;;;;4987989;28;20062;-90
2024/01/26 08:03:53;;;;;;;0.00;0.00;;;;;;;;;;4985341;28;20030;-90
2024/01/26 08:06:19;;;;;;;0.10;0.10;;;;;;;;;;4993588;28;20081;-90
2024/01/26 08:08:45;;;;;;;0.00;0.00;;;;;;;;;;4999999;28;21346;-91
2024/01/26 08:11:11;;;;;;;0.00;0.00;;;;;;;;;;4987562;28;20477;-90
2024/01/26 08:13:37;;;;;;;0.00;0.00;;;;;;;;;;4990331;28;20081;-91
2024/01/26 08:16:03;;;;;;;0.10;0.10;;;;;;;;;;4992753;28;20473;-91
2024/01/26 08:18:29;;;;;;;0.00;0.00;;;;;;;;;;4989878;28;20050;-88
2024/01/26 08:20:55;;;;;;;0.00;0.00;;;;;;;;;;4992856;28;20034;-91
2024/01/26 08:23:21;;;;;;;0.00;0.00;;;;;;;;;;4999820;28;20031;-90
2024/01/26 08:25:47;;;;;;;0.00;0.00;;;;;;;;;;4996788;28;20031;-90
2024/01/26 08:28:13;;;;;;;0.00;0.00;;;;;;;;;;4991418;28;20034;-90
2024/01/26 08:30:41;;;;;;;0.00;0.00;;;;;;;;;;4996362;28;20042;-91
2024/01/26 08:33:07;;;;;;;0.00;0.00;;;;;;;;;;4991425;28;20034;-91
2024/01/26 08:35:33;;;;;;;0.00;0.00;;;;;;;;;;4990380;28;20064;-89
2024/01/26 08:37:59;;;;;;;0.00;0.00;;;;;;;;;;4996874;28;20034;-90
2024/01/26 08:40:26;;;;;;;0.00;0.00;;;;;;;;;;4995962;28;20033;-90
2024/01/26 08:42:52;;;;;;;0.00;0.00;;;;;;;;;;4996433;28;20096;-91
2024/01/26 08:45:18;;;;;;;0.00;0.00;;;;;;;;;;4988615;28;20031;-90
2024/01/26 08:47:44;;;;;;;0.00;0.00;;;;;;;;;;5004095;28;20033;-90
2024/01/26 08:50:11;;;;;;;0.00;0.00;;;;;;;;;;4995473;28;20473;-90
2024/01/26 08:52:36;;;;;;;0.00;0.00;;;;;;;;;;4995951;28;20053;-89
2024/01/26 08:55:03;;;;;;;0.00;0.00;;;;;;;;;;5003526;28;20014;-92
2024/01/26 08:57:29;;;;;;;0.00;0.00;;;;;;;;;;5015193;28;20026;-90
2024/01/26 08:59:55;;;;;;;0.00;0.00;;;;;;;;;;5000474;28;20026;-90
2024/01/26 09:02:21;;;;;;;0.00;0.00;;;;;;;;;;4988934;28;20085;-90
2024/01/26 09:04:47;;;;;;;0.00;0.00;;;;;;;;;;4995925;28;20057;-90
2024/01/26 09:07:17;;;;;;;0.00;0.00;;;;;;;;;;4995457;28;20386;-91
2024/01/26 09:09:43;;;;;;;0.00;0.00;;;;;;;;;;4995041;28;20027;-90
2024/01/26 09:12:09;;;;;;;0.00;0.00;;;;;;;;;;4987612;28;20033;-90
2024/01/26 09:14:35;;;;;;;0.00;0.00;;;;;;;;;;4995574;28;20029;-90
2024/01/26 09:17:01;;;;;;;0.00;0.00;;;;;;;;;;5001268;28;20076;-90
2024/01/26 09:19:27;;;;;;;0.00;0.00;;;;;;;;;;4995477;28;20371;-90
2024/01/26 09:21:53;;;;;;;0.00;0.00;;;;;;;;;;4993512;28;20026;-90
2024/01/26 09:24:19;;;;;;;0.00;0.00;;;;;;;;;;4990082;28;20018;-90
2024/01/26 09:26:45;;;;;;;0.00;0.00;;;;;;;;;;4996718;28;20050;-89
2024/01/26 09:29:11;;;;;;;0.00;0.00;;;;;;;;;;4994252;28;20030;-90
2024/01/26 09:31:37;;;;;;;0.00;0.00;;;;;;;;;;4988709;28;20034;-91
2024/01/26 09:34:04;;;;;;;0.00;0.00;;;;;;;;;;4990826;28;20030;-90
2024/01/26 09:36:30;;;;;;;0.00;0.00;;;;;;;;;;4995380;28;20019;-91
2024/01/26 09:38:56;;;;;;;0.00;0.00;;;;;;;;;;4993872;28;20576;-91
2024/01/26 09:41:22;;;;;;;0.00;0.00;;;;;;;;;;4995411;28;20026;-90
2024/01/26 09:43:48;;;;;;;0.00;0.00;;;;;;;;;;4994383;28;20038;-91
2024/01/26 09:46:14;;;;;;;0.00;0.00;;;10.60;99.90;;;;;;4994186;28;20489;-90
2024/01/26 09:48:40;;;;;;;0.00;0.00;;;;;;;;;;4992366;28;20034;-89
2024/01/26 09:51:06;;;;;;;0.00;0.00;;;;;;;;;;4989688;28;20031;-89
2024/01/26 09:53:33;;;;;;;0.00;0.00;;;;;;;;;;4994239;28;20022;-90
2024/01/26 09:56:00;;;;;;;0.00;0.00;;;10.60;99.90;;;;;;4997059;28;20027;-90
2024/01/26 09:58:26;;;;;;;0.00;0.00;;;;;;;;;;4994735;28;20026;-90
2024/01/26 10:00:54;;;;;;;0.00;0.00;;;10.60;99.90;;;;;;4991160;28;20031;-90
2024/01/26 10:03:23;;;;;;;0.00;0.00;;;10.70;99.90;;;;;;4987545;28;20030;-90
2024/01/26 10:05:49;;;;;;;0.00;0.00;;;;;;;;;;4992385;28;20030;-90
2024/01/26 10:08:16;;;;;;;0.00;0.00;;;;;;;;;;4988079;28;20580;-90
2024/01/26 10:10:42;;;;;;;0.00;0.00;;;;;;;;;;4990490;28;20026;-90
2024/01/26 10:13:08;;;;;;;0.00;0.00;;;;;;;;;;4994104;28;20101;-91
2024/01/26 10:15:34;;;;;;;0.00;0.00;;;;;;;;;;4989739;28;20023;-91
2024/01/26 10:18:00;;;;;;;0.00;0.00;;;;;;;;;;4993628;28;20022;-90
2024/01/26 10:20:26;;;;;;;0.00;0.00;;;;;;;;;;4993935;28;20026;-91
2024/01/26 10:22:53;;;;;;;0.00;0.00;;;;;;;;;;4993288;28;20027;-91
2024/01/26 10:25:19;;;;;;;0.08;0.08;;;;;;;;;;4995823;28;20041;-90
2024/01/26 10:27:45;;;;;;;0.00;0.00;;;;;;;;;;4994026;28;20034;-90
2024/01/26 10:30:11;;;;;;;0.00;0.00;;;;;;;;;;4994042;28;20429;-89
2024/01/26 10:32:38;;;;;;;0.00;0.00;;;;;;;;;;4994204;28;20077;-90
2024/01/26 10:35:05;;;;;;;0.00;0.00;;;10.90;99.90;;;;;;4982835;28;20072;-89
2024/01/26 10:37:32;;;;;;;0.00;0.00;;;10.90;99.90;;;;;;4993790;28;20026;-89
2024/01/26 10:40:00;;;;;;;0.00;0.00;;;11.10;99.90;;;;;;4992866;28;20030;-91
2024/01/26 10:42:29;;;;;;;0.00;0.00;;;11.20;99.90;;;;;;4988989;28;20026;-91
2024/01/26 10:44:57;;;;;;;0.00;0.00;;;11.20;99.90;;;;;;4989275;28;20137;-91
2024/01/26 10:47:23;;;;;;;0.00;0.00;;;;;;;;;;4990243;28;20092;-91
2024/01/26 10:49:52;;;;;;;0.00;0.00;;;11.20;99.90;;;;;;4993278;28;20068;-91
2024/01/26 10:52:19;;;;;;;0.00;0.00;;;11.20;99.90;;;;;;4993630;28;20030;-90
2024/01/26 10:54:47;;;;;;;0.00;0.00;;;11.10;99.90;;;;;;4992829;28;20536;-90
2024/01/26 10:57:13;;;;;;;0.00;0.00;;;;;;;;;;4993477;28;20022;-91
2024/01/26 10:59:40;;;;;;;0.00;0.00;;;;;;;;;;4993457;28;20499;-90
2024/01/26 11:02:10;;;;;;;0.00;0.00;;;11.30;99.90;;;;;;4993163;28;20018;-90
2024/01/26 11:04:36;;;;;;;0.08;0.08;;;;;;;;;;4988268;28;20026;-91
2024/01/26 11:07:02;;;;;;;0.00;0.00;;;;;;;;;;4985920;28;20041;-91
2024/01/26 11:09:32;;;;;;;0.00;0.00;;;11.40;99.90;;;;;;4993416;28;20026;-91
2024/01/26 11:11:58;;;;;;;0.00;0.00;;;;;;;;;;4989487;28;20553;-90
2024/01/26 11:14:27;;;;;;;0.00;0.00;;;11.40;99.90;;;;;;4994323;28;20498;-90
2024/01/26 11:17:07;;;;;;;;;;;11.50;99.90;;;;;;4996854;28;20420;-89
2024/01/26 11:19:33;;;;;;;0.00;0.00;;;;;;;;;;4992439;28;19912;-90
2024/01/26 11:22:04;;;;;;;0.00;0.00;;;11.50;99.90;;;;;;4987183;28;20022;-92
2024/01/26 11:24:32;;;;;;;0.00;0.00;;;11.50;99.90;;;;;;4990716;28;20037;-91
2024/01/26 11:27:00;;;;;;;0.00;0.00;;;11.50;99.90;;;;;;4991614;28;20042;-89
2024/01/26 11:29:33;;;;;;;0.00;0.00;;;11.50;99.90;;;;;;4989203;28;20027;-91
2024/01/26 11:31:59;;;;;;;0.00;0.00;;;;;;;;;;4993900;28;20498;-90
2024/01/26 11:34:25;;;;;;;0.00;0.00;;;;;;;;;;4992188;28;20026;-90
2024/01/26 11:37:12;;;;;;;0.00;0.00;;;11.30;99.90;;;;;;4995925;28;20041;-91
2024/01/26 11:39:38;;;;;;;0.00;0.00;;;;;;;;;;4988770;28;20560;-90
2024/01/26 11:42:11;;;;;;;0.00;0.00;;;;;;;;;;4989675;28;20085;-91
2024/01/26 11:44:42;;;;;;;0.00;0.00;;;10.50;99.90;;;;;;4984132;28;20030;-92
2024/01/26 11:47:11;;;;;;;0.00;0.00;;;;;;;;;;4990879;28;20030;-92
2024/01/26 11:49:38;;;;;;;0.00;0.00;;;;;;;;;;5002264;28;20173;-91
2024/01/26 11:52:04;;;;;;;0.10;0.10;;;;;;;;;;4991653;28;20125;-91
2024/01/26 11:54:34;;;;;;;0.00;0.00;;;9.40;99.90;;;;;;4992648;28;20039;-91
2024/01/26 11:57:02;;;;;;;0.10;0.10;;;;;;;;;;4991605;28;20520;-91
2024/01/26 11:59:31;;;;;;;0.10;0.10;;;;;;;;;;4992556;28;20486;-91
2024/01/26 12:01:57;;;;;;;0.10;0.10;;;;;;;;;;4992173;28;20031;-91
2024/01/26 12:04:24;;;;;;;0.10;0.10;;;;;;;;;;4993146;28;20030;-91
2024/01/26 12:06:50;;;;;;;0.10;0.10;;;8.90;99.90;;;;;;4990593;28;20027;-90
2024/01/26 12:09:16;;;;;;;0.10;0.10;;;;;;;;;;4988455;28;20022;-92
2024/01/26 12:11:42;;;;;;;0.10;0.10;;;;;;;;;;4986081;28;20026;-91
2024/01/26 12:14:08;;;;;;;0.10;0.10;;;;;;;;;;4996523;28;20034;-91
2024/01/26 12:16:34;;;;;;;0.10;0.10;;;;;;;;;;4989396;28;20362;-91
2024/01/26 12:19:01;;;;;;;0.10;0.10;;;;;;;;;;4988141;28;20042;-92
2024/01/26 12:21:30;;;;;;;0.08;0.08;;;8.70;99.90;;;;;;4993163;28;20026;-90
2024/01/26 12:23:56;;;;;;;0.10;0.10;;;;;;;;;;4991902;28;20038;-90
2024/01/26 12:26:22;;;;;;;0.10;0.10;;;;;;;;;;4994984;28;20027;-90
2024/01/26 12:28:48;;;;;;;0.10;0.10;;;;;;;;;;4994939;28;20030;-91
2024/01/26 12:31:16;;;;;;;0.10;0.10;;;;;;;;;;4994925;28;20481;-90
2024/01/26 12:33:46;;;;;;;0.10;0.10;;;8.90;99.90;;;;;;4993541;28;20022;-90
2024/01/26 12:36:12;;;;;;;0.10;0.10;;;8.90;99.90;;;;;;4991684;28;20052;-90
2024/01/26 12:38:38;;;;;;;0.03;0.03;;;;;;;;;;4991635;28;20030;-90
2024/01/26 12:41:04;;;;;;;0.10;0.10;;;;;;;;;;4991204;28;20551;-90
2024/01/26 12:43:31;;;;;;;0.10;0.10;;;;;;;;;;4992415;28;20038;-90
2024/01/26 12:45:57;;;;;;;0.10;0.10;;;;;;;;;;4990649;28;20069;-91
2024/01/26 12:48:22;;;;;;;0.10;0.10;;;;;;;;;;4991478;28;20486;-91
2024/01/26 12:50:48;;;;;;;0.00;0.00;;;;;;;;;;4991226;28;20038;-90
2024/01/26 12:53:15;;;;;;;0.00;0.00;;;;;;;;;;4994667;28;20031;-90
2024/01/26 12:55:41;;;;;;;0.10;0.10;;;;;;;;;;4997425;28;20125;-90
2024/01/26 12:58:08;;;;;;;0.10;0.10;;;;;;;;;;4991845;28;20066;-91
2024/01/26 13:00:34;;;;;;;0.10;0.10;;;;;;;;;;4987580;28;20023;-90
2024/01/26 13:03:03;;;;;;;0.00;0.00;;;8.80;99.90;;;;;;4992200;28;20035;-91
2024/01/26 13:05:29;;;;;;;0.10;0.10;;;;;;;;;;4995066;28;20490;-90
2024/01/26 13:07:55;;;;;;;0.10;0.10;;;;;;;;;;4987737;28;20389;-90
2024/01/26 13:10:21;;;;;;;0.10;0.10;;;;;;;;;;4991048;28;20027;-90
2024/01/26 13:12:47;;;;;;;0.10;0.10;;;;;;;;;;4998953;28;20096;-90
2024/01/26 13:15:14;;;;;;;0.10;0.10;;;;;;;;;;4992778;28;21750;-90
2024/01/26 13:17:40;;;;;;;0.00;0.00;;;;;;;;;;4989790;28;20125;-91
2024/01/26 13:20:09;;;;;;;0.00;0.00;;;9.00;99.90;;;;;;4993831;28;20035;-91
2024/01/26 13:22:35;;;;;;;0.00;0.00;;;;;;;;;;4989702;28;20041;-91
2024/01/26 13:25:01;;;;;;;0.10;0.10;;;;;;;;;;4991612;28;20026;-91
2024/01/26 13:27:27;;;;;;;0.10;0.10;;;;;;;;;;4988826;28;20034;-91
2024/01/26 13:29:53;;;;;;;0.10;0.10;;;;;;;;;;4987174;28;20041;-91
2024/01/26 13:32:19;;;;;;;0.10;0.10;;;;;;;;;;5004928;28;20034;-91
2024/01/26 13:34:45;;;;;;;0.10;0.10;;;;;;;;;;4991170;28;20035;-91
2024/01/26 13:37:11;;;;;;;0.10;0.10;;;;;;;;;;4989115;28;20033;-91
2024/01/26 13:39:53;;;;;;;0.10;0.10;;;8.90;99.90;;;;;;4985856;28;20385;-91
2024/01/26 13:42:19;;;;;;;0.10;0.10;;;;;;;;;;4999536;28;20055;-90
2024/01/26 13:44:47;;;;;;;0.10;0.10;;;;;;;;;;4984285;28;20037;-91
2024/01/26 13:47:13;;;;;;;0.10;0.10;;;;;;;;;;4986670;28;20145;-91
2024/01/26 13:49:39;;;;;;;0.08;0.08;;;;;;;;;;4985893;28;20524;-92
2024/01/26 13:52:05;;;;;;;0.10;0.10;;;;;;;;;;4986479;28;20047;-93
2024/01/26 13:54:31;;;;;;;0.10;0.10;;;;;;;;;;4986985;28;20030;-93
2024/01/26 14:09:55;;;;;;;0.10;0.10;;;;;;;;;;4992763;28;20058;-90
2024/01/26 14:12:21;;;;;;;0.10;0.10;;;;;;;;;;4996283;28;20050;-91
2024/01/26 14:14:47;;;;;;;0.10;0.10;;;;;;;;;;5013851;28;20133;-91
2024/01/26 14:17:14;;;;;;;0.05;0.05;;;;;;;;;;4996328;28;20070;-90
2024/01/26 14:20:21;;;;;;;;;;;;;;;;;;;;;
2024/01/26 15:09:17;;;;;;;0.10;0.10;;;;;;;;;;5001736;28;20046;-89
2024/01/26 15:11:44;;;;;;;0.10;0.10;;;;;;;;;;5011942;28;20030;-90
2024/01/26 15:14:10;;;;;;;0.10;0.10;;;;;;;;;;5011801;28;20026;-90
2024/01/26 15:16:37;;;;;;;0.10;0.10;;;;;;;;;;5015126;28;20100;-92
2024/01/26 15:19:03;;;;;;;0.10;0.10;;;;;;;;;;5010666;28;20022;-90
2024/01/26 15:24:03;;;;;;;0.10;0.10;;;;;;;;;;5016547;28;20061;-90
2024/01/26 15:26:28;;;;;;;0.10;0.10;;;;;;;;;;5035916;28;20125;-90
2024/01/26 15:28:54;;;;;;;0.10;0.10;;;;;;;;;;5021514;28;20034;-90
2024/01/26 15:31:22;;;;;;;0.00;0.00;;;;;;;;;;4997718;28;20030;-91
2024/01/26 15:33:48;;;;;;;0.10;0.10;;;;;;;;;;4992768;28;20030;-91
2024/01/26 15:36:14;;;;;;;0.00;0.00;;;;;;;;;;4990396;28;20029;-91
2024/01/26 15:38:43;;;;;;;0.10;0.10;;;;;;;;;;4990443;28;20026;-91
2024/01/26 15:41:09;;;;;;;0.10;0.10;;;;;;;;;;4983449;28;20073;-89